Time;durP1;ratioP1;P1;durP2;ratioP2;P2;SDS_P1;SDS_P2;PMS_P1;PMS_P2;Temp;Humidity;BMP_temperature;BMP_pressure;BME280_temperature;BME280_humidity;BME280_pressure;Samples;Min_cycle;Max_cycle;Signal;HPM_P1;HPM_P2
2022/10/03 00:00:01;;;;;;;859.33;796.57;;;9.60;99.90;;;;;;5001178;28;20500;-82
2022/10/03 00:02:47;;;;;;;869.97;805.00;;;9.60;99.90;;;;;;5000808;28;20942;-83
2022/10/03 00:05:31;;;;;;;865.57;799.47;;;9.80;99.90;;;;;;5000525;28;20837;-82
2022/10/03 00:08:14;;;;;;;853.80;789.50;;;9.80;99.90;;;;;;5000627;28;20450;-82
2022/10/03 00:10:56;;;;;;;852.37;789.20;;;9.80;99.90;;;;;;5000708;28;20885;-82
2022/10/03 00:13:34;;;;;;;861.17;799.13;;;9.80;99.90;;;;;;5000177;28;20454;-82
2022/10/03 00:16:10;;;;;;;857.17;797.77;;;9.80;99.90;;;;;;5000717;28;20457;-82
2022/10/03 00:18:49;;;;;;;860.90;801.90;;;9.60;99.90;;;;;;5000622;28;20461;-83
2022/10/03 00:21:37;;;;;;;860.73;802.37;;;9.50;99.90;;;;;;5000891;28;20505;-81
2022/10/03 00:24:14;;;;;;;874.93;810.67;;;9.40;99.90;;;;;;5000447;28;20453;-82
2022/10/03 00:26:49;;;;;;;868.07;801.00;;;9.40;99.90;;;;;;4981142;28;20455;-82
2022/10/03 00:29:35;;;;;;;864.60;796.83;;;9.60;99.90;;;;;;4997878;28;20473;-83
2022/10/03 00:32:12;;;;;;;878.10;807.60;;;9.80;99.90;;;;;;4999995;28;20453;-82
2022/10/03 00:34:54;;;;;;;866.97;799.17;;;9.90;99.90;;;;;;4999691;28;20457;-82
2022/10/03 00:37:28;;;;;;;863.83;799.10;;;10.00;99.90;;;;;;4990271;28;20951;-82
2022/10/03 00:40:34;;;;;;;839.97;776.90;;;9.90;99.90;;;;;;5000507;28;20468;-82
2022/10/03 00:43:51;;;;;;;837.27;775.70;;;9.90;99.90;;;;;;5000164;28;20481;-82
2022/10/03 00:46:41;;;;;;;828.27;768.27;;;9.70;99.90;;;;;;4999425;28;20469;-81
2022/10/03 00:49:42;;;;;;;832.90;773.00;;;9.40;99.90;;;;;;4999652;28;21013;-82
2022/10/03 00:52:26;;;;;;;832.03;771.17;;;9.20;99.90;;;;;;4989428;28;20446;-82
2022/10/03 00:55:03;;;;;;;833.53;772.40;;;9.00;99.90;;;;;;5000517;28;20461;-82
2022/10/03 00:57:57;;;;;;;848.00;783.60;;;8.80;99.90;;;;;;5000666;28;20446;-82
2022/10/03 01:00:28;;;;;;;846.07;781.77;;;8.80;99.90;;;;;;5000175;28;20470;-82
2022/10/03 01:03:08;;;;;;;849.17;783.00;;;8.60;99.90;;;;;;5000498;28;20453;-82
2022/10/03 01:05:45;;;;;;;842.53;774.93;;;8.50;99.90;;;;;;4984798;28;20460;-83
2022/10/03 01:08:37;;;;;;;847.20;777.60;;;8.40;99.90;;;;;;5000021;28;20458;-82
2022/10/03 01:11:15;;;;;;;849.20;779.53;;;8.40;99.90;;;;;;4986902;28;20970;-83
2022/10/03 01:13:56;;;;;;;841.97;770.90;;;8.20;99.90;;;;;;4998983;28;20862;-82
2022/10/03 01:16:36;;;;;;;854.80;779.83;;;8.20;99.90;;;;;;4999505;28;20825;-82
2022/10/03 01:19:21;;;;;;;854.23;779.90;;;8.20;99.90;;;;;;4999929;28;20610;-82
2022/10/03 01:21:58;;;;;;;853.43;778.20;;;8.10;99.90;;;;;;4992713;28;20481;-82
2022/10/03 01:24:57;;;;;;;859.33;780.90;;;8.10;99.90;;;;;;4999145;28;20706;-82
2022/10/03 01:30:21;;;;;;;860.93;783.23;;;8.00;99.90;;;;;;4999605;28;20841;-82
2022/10/03 01:30:25;;;;;;;862.07;783.33;;;8.00;99.90;;;;;;4998798;28;20477;-82
2022/10/03 01:32:59;;;;;;;870.30;790.60;;;8.00;99.90;;;;;;4999656;28;20478;-83
2022/10/03 01:35:38;;;;;;;869.87;790.07;;;7.80;99.90;;;;;;4999133;28;20450;-82
2022/10/03 01:38:14;;;;;;;881.90;801.20;;;7.80;99.90;;;;;;4999506;28;20820;-82
2022/10/03 01:40:50;;;;;;;876.10;794.77;;;7.70;99.90;;;;;;4985230;28;20477;-82
2022/10/03 01:43:20;;;;;;;863.60;783.80;;;7.80;99.90;;;;;;4999205;28;20454;-83
2022/10/03 01:46:04;;;;;;;861.73;780.80;;;7.70;99.90;;;;;;4998982;28;20485;-82
2022/10/03 01:48:38;;;;;;;866.67;786.27;;;7.80;99.90;;;;;;4999812;28;20601;-82
2022/10/03 01:51:11;;;;;;;870.90;792.10;;;7.80;99.90;;;;;;4998660;28;20446;-82
2022/10/03 01:53:57;;;;;;;867.10;786.33;;;7.70;99.90;;;;;;4998411;28;20454;-82
2022/10/03 01:56:32;;;;;;;866.37;785.33;;;7.80;99.90;;;;;;4999227;28;20461;-82
2022/10/03 01:59:06;;;;;;;856.23;776.50;;;7.80;99.90;;;;;;4999180;28;20473;-81
2022/10/03 02:01:46;;;;;;;868.23;786.83;;;7.80;99.90;;;;;;4998935;28;20993;-82
2022/10/03 02:04:21;;;;;;;857.43;776.57;;;7.80;99.90;;;;;;4998501;28;20454;-82
2022/10/03 02:06:57;;;;;;;870.57;789.07;;;7.70;99.90;;;;;;4999276;28;20454;-83
2022/10/03 02:09:33;;;;;;;874.10;791.90;;;7.70;99.90;;;;;;5000644;28;20844;-81
2022/10/03 02:12:26;;;;;;;867.00;784.90;;;7.70;99.90;;;;;;5002875;28;20450;-82
2022/10/03 02:14:59;;;;;;;881.73;800.93;;;7.50;99.90;;;;;;5001102;28;20461;-82
2022/10/03 02:17:44;;;;;;;878.93;797.13;;;7.40;99.90;;;;;;5001710;28;20466;-81
2022/10/03 02:20:22;;;;;;;877.33;794.97;;;7.50;99.90;;;;;;4998660;28;20997;-83
2022/10/03 02:22:52;;;;;;;865.93;784.53;;;7.40;99.90;;;;;;4998378;28;21040;-82
2022/10/03 02:25:25;;;;;;;866.23;783.90;;;7.60;99.90;;;;;;4997798;28;20457;-82
2022/10/03 02:28:22;;;;;;;860.97;779.77;;;7.70;99.90;;;;;;4979772;28;20455;-83
2022/10/03 02:31:06;;;;;;;863.30;782.00;;;7.70;99.90;;;;;;4998613;28;20465;-83
2022/10/03 02:34:11;;;;;;;873.80;791.60;;;7.70;99.90;;;;;;4998189;28;20446;-81
2022/10/03 02:37:21;;;;;;;866.83;786.33;;;7.70;99.90;;;;;;4987128;28;20446;-83
2022/10/03 02:40:32;;;;;;;873.63;791.43;;;7.80;99.90;;;;;;4998136;28;20462;-84
2022/10/03 02:43:47;;;;;;;874.07;792.23;;;7.80;99.90;;;;;;4980455;28;20534;-83
2022/10/03 02:46:53;;;;;;;873.60;790.80;;;7.70;99.90;;;;;;4997509;28;20454;-82
2022/10/03 02:49:58;;;;;;;871.73;787.63;;;7.70;99.90;;;;;;4997656;28;20493;-83
2022/10/03 02:52:54;;;;;;;873.80;789.63;;;7.70;99.90;;;;;;4998304;28;20453;-83
2022/10/03 02:55:46;;;;;;;865.87;782.57;;;7.70;99.90;;;;;;4996650;28;20482;-83
2022/10/03 02:58:32;;;;;;;862.53;778.40;;;7.80;99.90;;;;;;4997650;28;20788;-83
2022/10/03 03:01:35;;;;;;;874.03;790.17;;;7.80;99.90;;;;;;4998447;28;20895;-82
2022/10/03 03:04:26;;;;;;;870.60;786.17;;;7.90;99.90;;;;;;4996979;28;20446;-82
2022/10/03 03:07:02;;;;;;;879.90;795.70;;;7.80;99.90;;;;;;4964875;28;20445;-82
2022/10/03 03:10:06;;;;;;;876.53;792.73;;;7.70;99.90;;;;;;4997628;28;21048;-82
2022/10/03 03:13:00;;;;;;;878.80;794.10;;;7.80;99.90;;;;;;5009568;28;20816;-82
2022/10/03 03:16:05;;;;;;;888.80;804.60;;;7.60;99.90;;;;;;5017375;28;20467;-82
2022/10/03 03:18:37;;;;;;;880.03;795.73;;;7.60;99.90;;;;;;4997666;28;20474;-83
2022/10/03 03:21:16;;;;;;;886.57;800.80;;;7.50;99.90;;;;;;4997175;28;20986;-83
2022/10/03 03:23:58;;;;;;;887.50;802.07;;;7.30;99.90;;;;;;4978314;28;20553;-83
2022/10/03 03:26:46;;;;;;;886.13;801.20;;;7.20;99.90;;;;;;4996194;28;20458;-83
2022/10/03 03:29:23;;;;;;;890.57;803.70;;;7.20;99.90;;;;;;4997217;28;20470;-83
2022/10/03 03:32:01;;;;;;;894.13;808.00;;;7.20;99.90;;;;;;4997026;28;20454;-83
2022/10/03 03:34:36;;;;;;;897.10;809.93;;;7.20;99.90;;;;;;4997191;28;20454;-83
2022/10/03 03:37:08;;;;;;;897.70;811.57;;;7.30;99.90;;;;;;4997757;28;20453;-83
2022/10/03 03:39:56;;;;;;;898.97;812.87;;;7.30;99.90;;;;;;4997705;28;20474;-82
2022/10/03 03:42:39;;;;;;;902.10;816.20;;;7.20;99.90;;;;;;4997501;28;20473;-83
2022/10/03 03:45:15;;;;;;;895.43;811.37;;;7.20;99.90;;;;;;4996646;28;20458;-82
2022/10/03 03:48:07;;;;;;;892.33;808.77;;;7.20;99.90;;;;;;4997265;28;20544;-83
2022/10/03 03:50:55;;;;;;;892.33;807.07;;;7.10;99.90;;;;;;4996257;28;20477;-83
2022/10/03 03:53:36;;;;;;;897.03;809.97;;;7.10;99.90;;;;;;4999858;28;20878;-85
2022/10/03 03:56:27;;;;;;;893.63;808.23;;;7.10;99.90;;;;;;4996210;28;20454;-82
2022/10/03 03:59:10;;;;;;;895.57;809.23;;;7.20;99.90;;;;;;4991655;28;20469;-83
2022/10/03 04:01:48;;;;;;;901.77;815.47;;;7.10;99.90;;;;;;5012083;28;21029;-82
2022/10/03 04:04:38;;;;;;;903.37;816.90;;;7.10;99.90;;;;;;5012577;28;20508;-83
2022/10/03 04:07:18;;;;;;;905.07;818.93;;;7.10;99.90;;;;;;4998703;28;20514;-88
2022/10/03 04:10:05;;;;;;;955.23;859.43;;;7.00;99.90;;;;;;4997332;28;20478;-84
2022/10/03 04:12:49;;;;;;;914.60;828.70;;;6.90;99.90;;;;;;5001571;28;20485;-82
2022/10/03 04:15:30;;;;;;;906.97;821.50;;;6.90;99.90;;;;;;4996873;28;20886;-83
2022/10/03 04:21:21;;;;;;;897.57;813.13;;;7.00;99.90;;;;;;5002029;28;21001;-83
2022/10/03 04:24:05;;;;;;;908.60;823.20;;;6.90;99.90;;;;;;4998425;28;20829;-83
2022/10/03 04:26:47;;;;;;;896.90;810.83;;;6.90;99.90;;;;;;5000394;28;20457;-83
2022/10/03 04:29:46;;;;;;;911.70;827.20;;;7.00;99.90;;;;;;4998628;28;20549;-83
2022/10/03 04:32:33;;;;;;;919.90;835.13;;;6.90;99.90;;;;;;5003385;28;20853;-82
2022/10/03 04:35:16;;;;;;;920.77;837.70;;;6.90;99.90;;;;;;5001410;28;20489;-83
2022/10/03 04:37:49;;;;;;;914.97;831.07;;;6.90;99.90;;;;;;4999673;28;20931;-83
2022/10/03 04:40:25;;;;;;;913.23;830.07;;;6.90;99.90;;;;;;5000609;28;20480;-82
2022/10/03 04:43:03;;;;;;;926.07;841.00;;;6.80;99.90;;;;;;5000291;28;20477;-82
2022/10/03 04:45:48;;;;;;;915.13;829.90;;;6.80;99.90;;;;;;4998366;28;20453;-84
2022/10/03 04:48:22;;;;;;;913.27;829.13;;;6.90;99.90;;;;;;5006361;28;20461;-82
2022/10/03 04:51:01;;;;;;;908.03;824.97;;;6.80;99.90;;;;;;4998036;28;20450;-83
2022/10/03 04:53:41;;;;;;;919.27;834.73;;;6.80;99.90;;;;;;5000203;28;20454;-83
2022/10/03 04:56:23;;;;;;;917.87;833.63;;;6.80;99.90;;;;;;5000265;28;20476;-83
2022/10/03 04:58:56;;;;;;;913.10;829.40;;;6.80;99.90;;;;;;4997470;28;20474;-83
2022/10/03 05:01:28;;;;;;;918.73;834.27;;;6.70;99.90;;;;;;4998952;28;20450;-83
2022/10/03 05:04:09;;;;;;;922.53;837.43;;;6.70;99.90;;;;;;4998787;28;20454;-82
2022/10/03 05:06:47;;;;;;;931.50;846.00;;;6.70;99.90;;;;;;5000785;28;20454;-83
2022/10/03 05:09:25;;;;;;;918.50;834.83;;;6.70;99.90;;;;;;5001418;28;20485;-84
2022/10/03 05:12:02;;;;;;;927.90;844.57;;;6.60;99.90;;;;;;4997948;28;20450;-84
2022/10/03 05:14:48;;;;;;;913.13;828.97;;;6.50;99.90;;;;;;4998940;28;20534;-82
2022/10/03 05:17:23;;;;;;;920.50;836.03;;;6.50;99.90;;;;;;4999061;28;20545;-83
2022/10/03 05:20:20;;;;;;;921.07;837.00;;;6.60;99.90;;;;;;4999394;28;20504;-82
2022/10/03 05:22:56;;;;;;;916.40;832.10;;;6.70;99.90;;;;;;4999516;28;20854;-82
2022/10/03 05:25:34;;;;;;;926.50;840.70;;;6.60;99.90;;;;;;4998823;28;20971;-83
2022/10/03 05:28:14;;;;;;;930.47;845.33;;;6.50;99.90;;;;;;4978743;28;20490;-82
2022/10/03 05:30:48;;;;;;;927.07;842.60;;;6.60;99.90;;;;;;4984718;28;20473;-83
2022/10/03 05:33:27;;;;;;;934.27;848.23;;;6.60;99.90;;;;;;4998806;28;20535;-82
2022/10/03 05:36:08;;;;;;;931.67;845.83;;;6.60;99.90;;;;;;5002141;28;20463;-85
2022/10/03 05:39:01;;;;;;;923.77;838.87;;;6.60;99.90;;;;;;4999391;28;20454;-82
2022/10/03 05:41:31;;;;;;;928.50;842.70;;;6.80;99.90;;;;;;4975396;28;20458;-82
2022/10/03 05:44:04;;;;;;;915.63;830.67;;;6.80;99.90;;;;;;5007448;28;20959;-81
2022/10/03 05:46:53;;;;;;;910.57;825.27;;;6.90;99.90;;;;;;4996153;28;20462;-83
2022/10/03 05:49:48;;;;;;;918.97;834.13;;;6.90;99.90;;;;;;4998693;28;20462;-82
2022/10/03 05:52:36;;;;;;;918.73;833.43;;;7.00;99.90;;;;;;4998209;28;20457;-82
2022/10/03 05:55:21;;;;;;;909.37;825.17;;;7.10;99.90;;;;;;4994663;28;20571;-82
2022/10/03 05:58:22;;;;;;;896.70;812.80;;;7.10;99.90;;;;;;4998777;28;20453;-82
2022/10/03 06:01:18;;;;;;;890.73;807.03;;;7.30;99.90;;;;;;4997881;28;20449;-82
2022/10/03 06:04:16;;;;;;;886.20;804.00;;;7.50;99.90;;;;;;4997260;28;20480;-85
2022/10/03 06:06:52;;;;;;;887.63;805.20;;;7.70;99.90;;;;;;4967850;28;20469;-81
2022/10/03 06:09:50;;;;;;;887.57;804.47;;;7.80;99.90;;;;;;4956452;28;1073821;-83
2022/10/03 06:12:25;;;;;;;890.20;807.07;;;7.80;99.90;;;;;;4997316;28;20191;-82
2022/10/03 06:15:19;;;;;;;886.47;802.37;;;7.80;99.90;;;;;;4997840;28;20456;-83
2022/10/03 06:18:09;;;;;;;887.07;802.60;;;7.80;99.90;;;;;;4998104;28;20446;-83
2022/10/03 06:21:31;;;;;;;888.53;803.80;;;7.80;99.90;;;;;;4998243;28;20474;-83
2022/10/03 06:24:29;;;;;;;894.53;809.70;;;8.00;99.90;;;;;;4991153;28;20478;-83
2022/10/03 06:27:32;;;;;;;890.30;805.43;;;8.20;99.90;;;;;;4998036;28;20457;-82
2022/10/03 06:30:10;;;;;;;876.57;793.97;;;8.40;99.90;;;;;;4997517;28;20474;-82
2022/10/03 06:33:17;;;;;;;876.33;792.57;;;8.50;99.90;;;;;;4994461;28;20453;-82
2022/10/03 06:36:21;;;;;;;875.23;791.23;;;8.70;99.90;;;;;;4992627;28;20460;-83
2022/10/03 06:39:22;;;;;;;870.13;785.60;;;8.90;99.90;;;;;;4996459;28;20989;-83
2022/10/03 06:42:14;;;;;;;880.07;796.00;;;9.10;99.90;;;;;;4997788;28;20457;-82
2022/10/03 06:45:09;;;;;;;874.03;789.70;;;9.30;99.90;;;;;;4996500;28;20451;-83
2022/10/03 06:47:50;;;;;;;873.60;789.70;;;9.50;99.90;;;;;;4994884;28;20497;-83
2022/10/03 06:50:38;;;;;;;869.00;785.80;;;9.60;99.90;;;;;;4996840;28;20465;-83
2022/10/03 06:53:34;;;;;;;870.73;786.60;;;9.80;99.90;;;;;;4996919;28;20446;-85
2022/10/03 06:56:27;;;;;;;862.10;778.93;;;10.00;99.90;;;;;;4998537;28;20959;-83
2022/10/03 06:59:09;;;;;;;864.33;781.40;;;10.20;99.90;;;;;;4979013;28;20576;-82
2022/10/03 07:02:01;;;;;;;864.33;780.93;;;10.40;99.90;;;;;;4996892;28;20454;-84
2022/10/03 07:05:09;;;;;;;864.03;781.70;;;10.60;99.90;;;;;;4996446;28;20877;-84
2022/10/03 07:08:24;;;;;;;869.57;787.77;;;10.80;99.90;;;;;;4996861;28;20482;-85
2022/10/03 07:11:05;;;;;;;863.97;781.77;;;11.00;99.90;;;;;;4935257;29;20460;-85
2022/10/03 07:13:59;;;;;;;860.40;781.53;;;11.10;99.90;;;;;;4995042;28;20450;-85
2022/10/03 07:16:59;;;;;;;861.77;782.37;;;11.20;99.90;;;;;;4976508;28;20463;-84
2022/10/03 07:19:53;;;;;;;847.57;769.40;;;11.50;99.90;;;;;;4979048;28;21008;-84
2022/10/03 07:22:47;;;;;;;838.53;760.30;;;11.60;99.90;;;;;;4995154;28;20467;-84
2022/10/03 07:25:54;;;;;;;834.80;758.63;;;11.90;99.90;;;;;;4996169;28;21019;-84
2022/10/03 07:28:50;;;;;;;817.03;741.53;;;12.10;99.90;;;;;;4996875;28;20454;-85
2022/10/03 07:31:28;;;;;;;809.87;738.17;;;12.40;99.90;;;;;;4996187;28;20946;-84
2022/10/03 07:34:31;;;;;;;810.40;745.37;;;12.50;99.90;;;;;;4997034;28;20496;-84
2022/10/03 07:40:25;;;;;;;825.60;763.17;;;12.30;99.90;;;;;;4996565;28;20456;-84
2022/10/03 07:43:23;;;;;;;815.33;755.63;;;12.40;99.90;;;;;;4996334;28;20482;-85
2022/10/03 07:46:19;;;;;;;790.87;737.17;;;12.50;99.90;;;;;;4988586;28;20465;-85
2022/10/03 07:49:03;;;;;;;459.93;439.03;;;12.70;99.90;;;;;;4996850;28;20481;-85
2022/10/03 07:51:44;;;;;;;476.27;454.37;;;12.70;99.90;;;;;;4999916;28;20465;-85
2022/10/03 07:54:54;;;;;;;326.17;311.77;;;12.70;99.90;;;;;;4999247;28;20457;-84
2022/10/03 07:57:56;;;;;;;369.63;353.10;;;12.70;99.90;;;;;;5000789;28;20454;-84
2022/10/03 08:00:26;;;;;;;104.27;98.57;;;12.70;99.90;;;;;;5000041;28;20477;-85
2022/10/03 08:03:44;;;;;;;36.77;33.60;;;12.70;99.90;;;;;;5000440;28;20492;-86
2022/10/03 08:06:17;;;;;;;114.60;109.07;;;12.60;99.90;;;;;;4953641;28;20460;-85
2022/10/03 08:09:12;;;;;;;73.23;67.73;;;12.60;99.90;;;;;;4999619;28;20481;-86
2022/10/03 08:12:30;;;;;;;138.30;131.97;;;12.80;99.90;;;;;;5000277;28;20449;-84
2022/10/03 08:15:04;;;;;;;98.17;93.17;;;13.30;99.90;;;;;;4954646;28;20473;-85
2022/10/03 08:17:57;;;;;;;18.80;11.60;;;13.70;99.90;;;;;;5001327;28;20458;-85
2022/10/03 08:20:42;;;;;;;16.00;9.87;;;13.90;99.90;;;;;;5000933;28;20848;-85
2022/10/03 08:23:36;;;;;;;14.85;7.35;;;14.10;99.90;;;;;;5001395;28;20468;-85
2022/10/03 08:26:16;;;;;;;21.10;6.83;;;14.50;99.90;;;;;;4966051;28;20199;-85
2022/10/03 08:29:00;;;;;;;17.03;7.73;;;14.70;99.90;;;;;;5000921;28;20470;-85
2022/10/03 08:32:02;;;;;;;16.53;5.63;;;14.40;99.90;;;;;;5001218;28;20464;-85
2022/10/03 08:34:57;;;;;;;16.10;7.27;;;14.40;99.90;;;;;;5001719;28;20449;-85
2022/10/03 08:38:13;;;;;;;13.53;5.70;;;14.40;99.90;;;;;;5000668;28;20454;-85
2022/10/03 08:41:09;;;;;;;20.43;5.10;;;14.30;99.90;;;;;;5000272;28;21061;-85
2022/10/03 08:44:06;;;;;;;14.20;6.20;;;14.10;99.90;;;;;;5000230;28;20493;-85
2022/10/03 08:47:01;;;;;;;17.67;6.87;;;14.10;99.90;;;;;;4999770;28;20464;-86
2022/10/03 08:50:02;;;;;;;18.53;5.97;;;14.70;99.90;;;;;;5000840;28;20561;-86
2022/10/03 08:52:40;;;;;;;18.37;7.50;;;14.80;99.90;;;;;;5001373;28;20452;-84
2022/10/03 08:55:41;;;;;;;21.53;7.33;;;15.00;99.90;;;;;;5001153;28;20461;-85
2022/10/03 08:58:47;;;;;;;25.50;6.57;;;15.00;99.90;;;;;;4994321;28;20866;-85
2022/10/03 09:01:40;;;;;;;18.10;5.97;;;15.20;99.80;;;;;;5002825;28;20461;-85
2022/10/03 09:04:54;;;;;;;14.23;6.13;;;15.40;98.20;;;;;;5002585;28;20599;-85
2022/10/03 09:08:23;;;;;;;14.23;6.30;;;15.50;98.30;;;;;;5000577;28;20659;-85
2022/10/03 09:11:17;;;;;;;20.20;7.83;;;15.40;96.60;;;;;;4924898;29;20474;-86
2022/10/03 09:14:28;;;;;;;16.17;5.60;;;15.80;97.80;;;;;;4923304;29;20526;-86
2022/10/03 09:17:09;;;;;;;10.20;5.70;;;16.00;95.80;;;;;;5003409;28;20462;-86
2022/10/03 09:20:03;;;;;;;16.83;5.50;;;16.30;95.70;;;;;;5003740;28;20484;-86
2022/10/03 09:22:59;;;;;;;13.87;5.80;;;16.90;94.40;;;;;;5005641;28;20438;-86
2022/10/03 09:25:41;;;;;;;21.27;5.33;;;16.70;92.50;;;;;;5004078;28;20462;-85
2022/10/03 09:28:39;;;;;;;18.53;5.20;;;17.00;91.80;;;;;;5005023;28;20465;-84
2022/10/03 09:31:18;;;;;;;14.27;6.00;;;17.40;89.00;;;;;;5004962;28;20450;-85
2022/10/03 09:34:02;;;;;;;15.20;6.07;;;17.50;88.80;;;;;;5005009;28;20454;-84
2022/10/03 09:36:54;;;;;;;14.20;5.40;;;17.70;86.90;;;;;;5004475;28;20465;-86
2022/10/03 09:40:09;;;;;;;15.57;5.20;;;17.80;85.60;;;;;;4967087;28;20556;-87
2022/10/03 09:43:11;;;;;;;15.80;5.50;;;18.50;85.70;;;;;;5005066;28;20460;-86
2022/10/03 09:46:17;;;;;;;15.07;6.13;;;18.70;82.50;;;;;;4987085;28;20464;-87
2022/10/03 09:49:15;;;;;;;16.03;5.30;;;19.10;82.60;;;;;;5004328;28;20480;-86
2022/10/03 09:51:54;;;;;;;15.70;6.00;;;19.60;76.60;;;;;;5004832;28;20465;-87
2022/10/03 09:54:58;;;;;;;10.70;4.17;;;19.80;72.60;;;;;;5003651;28;20468;-87
2022/10/03 09:57:59;;;;;;;13.00;3.70;;;20.20;70.40;;;;;;5004797;28;20941;-87
2022/10/03 10:00:46;;;;;;;8.30;3.17;;;20.20;72.00;;;;;;5000521;28;20484;-86
2022/10/03 10:04:13;;;;;;;16.97;4.23;;;19.90;70.00;;;;;;5004195;28;20485;-87
2022/10/03 10:07:05;;;;;;;16.60;4.30;;;20.60;67.40;;;;;;5005096;28;20464;-85
2022/10/03 10:09:53;;;;;;;13.40;3.73;;;20.30;64.90;;;;;;5005438;28;20511;-84
2022/10/03 10:12:43;;;;;;;14.47;4.67;;;20.50;66.10;;;;;;5004246;28;20458;-84
2022/10/03 10:15:46;;;;;;;16.77;4.27;;;20.10;65.40;;;;;;5003942;28;20513;-84
2022/10/03 10:18:38;;;;;;;12.17;3.37;;;20.00;68.70;;;;;;5004095;28;20508;-86
2022/10/03 10:21:45;;;;;;;9.93;3.53;;;20.50;65.80;;;;;;5004021;28;20457;-86
2022/10/03 10:24:50;;;;;;;9.50;2.87;;;21.50;63.20;;;;;;5003321;28;20484;-87
2022/10/03 10:27:47;;;;;;;11.70;3.10;;;21.50;56.70;;;;;;5004195;28;20472;-86
2022/10/03 10:30:49;;;;;;;7.73;2.67;;;21.30;58.30;;;;;;4971054;28;20481;-86
2022/10/03 10:34:04;;;;;;;13.10;5.23;;;20.30;58.00;;;;;;5002733;28;20449;-87
2022/10/03 10:37:04;;;;;;;17.50;3.50;;;19.70;65.80;;;;;;4924154;29;20459;-87
2022/10/03 10:40:11;;;;;;;11.40;2.47;;;19.60;64.30;;;;;;4960218;28;20832;-86
2022/10/03 10:43:08;;;;;;;10.00;2.00;;;19.40;64.10;;;;;;4971480;28;20453;-86
2022/10/03 10:45:55;;;;;;;12.03;2.37;;;20.60;61.50;;;;;;5003829;28;20454;-87
2022/10/03 10:49:05;;;;;;;9.10;2.20;;;21.40;55.80;;;;;;5004196;28;20455;-87
2022/10/03 10:51:57;;;;;;;7.77;2.20;;;20.50;56.90;;;;;;5003747;28;20445;-87
2022/10/03 10:55:05;;;;;;;8.83;2.60;;;20.70;58.40;;;;;;5003411;28;20453;-87
2022/10/03 10:58:13;;;;;;;9.83;2.23;;;21.80;52.90;;;;;;5002507;28;20962;-87
2022/10/03 11:01:01;;;;;;;14.90;2.60;;;22.20;48.80;;;;;;5002515;28;20466;-87
2022/10/03 11:03:57;;;;;;;10.80;1.77;;;21.90;49.40;;;;;;5003544;28;20485;-87
2022/10/03 11:07:04;;;;;;;10.13;2.13;;;21.70;47.60;;;;;;4994702;28;20465;-87
2022/10/03 11:10:27;;;;;;;7.73;1.60;;;22.00;44.40;;;;;;5029186;22;20487;-84
2022/10/03 11:13:43;;;;;;;7.17;2.00;;;23.20;43.30;;;;;;5012109;28;20449;-85
2022/10/03 11:16:45;;;;;;;12.03;1.93;;;23.40;38.50;;;;;;5012184;28;20464;-85
2022/10/03 11:19:41;;;;;;;11.00;2.83;;;23.40;36.80;;;;;;5012053;28;20448;-85
2022/10/03 11:22:43;;;;;;;8.93;1.90;;;23.20;33.70;;;;;;4979531;28;20484;-85
2022/10/03 11:32:32;;;;;;;11.10;2.10;;;21.30;42.50;;;;;;5084940;23;20509;-87
2022/10/03 11:44:42;;;;;;;6.60;1.53;;;19.70;51.00;;;;;;5071111;23;20483;-85
2022/10/03 11:47:34;;;;;;;10.67;1.73;;;19.40;48.00;;;;;;5012030;28;20456;-84
2022/10/03 11:50:36;;;;;;;8.20;1.97;;;19.40;52.70;;;;;;5013783;28;20462;-84
2022/10/03 11:53:29;;;;;;;11.20;2.20;;;19.30;50.90;;;;;;5014413;28;20506;-84
2022/10/03 11:56:16;;;;;;;7.10;1.90;;;19.00;49.30;;;;;;5010167;28;20460;-84
2022/10/03 11:58:56;;;;;;;11.07;2.37;;;19.00;49.20;;;;;;5014554;28;20458;-84
2022/10/03 12:01:35;;;;;;;8.43;1.90;;;19.40;47.90;;;;;;5013679;28;20973;-85
2022/10/03 12:04:11;;;;;;;6.83;1.77;;;20.90;45.90;;;;;;5012940;28;20486;-84
2022/10/03 12:09:48;;;;;;;11.70;1.83;;;21.70;45.00;;;;;;5013508;28;20501;-84
2022/10/03 12:12:26;;;;;;;6.53;1.77;;;21.40;43.50;;;;;;5012341;28;20548;-84
2022/10/03 12:14:57;;;;;;;9.47;1.40;;;20.80;42.30;;;;;;5012866;28;21005;-84
2022/10/03 12:17:31;;;;;;;8.47;1.90;;;20.50;46.40;;;;;;5013054;28;20448;-85
2022/10/03 12:20:04;;;;;;;11.37;2.00;;;20.30;47.70;;;;;;5013485;28;20975;-85
2022/10/03 12:22:47;;;;;;;5.50;1.53;;;20.00;47.80;;;;;;5016608;28;20477;-85
2022/10/03 12:25:23;;;;;;;12.47;2.30;;;19.60;48.50;;;;;;5014950;28;20454;-84
2022/10/03 12:28:00;;;;;;;10.17;1.50;;;20.00;49.20;;;;;;5017115;28;20459;-85
2022/10/03 12:30:36;;;;;;;7.10;1.67;;;21.20;42.40;;;;;;5015652;28;20450;-84
2022/10/03 12:33:22;;;;;;;8.10;1.67;;;22.60;38.10;;;;;;5013272;28;20475;-85
2022/10/03 12:35:54;;;;;;;6.47;1.80;;;23.30;33.80;;;;;;5014804;28;20490;-85
2022/10/03 12:38:33;;;;;;;6.93;1.70;;;23.10;30.70;;;;;;5016605;28;20439;-85
2022/10/03 12:41:13;;;;;;;8.03;1.63;;;22.50;32.40;;;;;;5016816;28;20483;-85
2022/10/03 12:43:52;;;;;;;8.80;1.67;;;22.60;33.30;;;;;;5016157;28;20522;-85
2022/10/03 12:46:37;;;;;;;9.30;2.30;;;21.70;35.20;;;;;;5016619;28;20532;-85
2022/10/03 12:49:15;;;;;;;7.20;1.80;;;20.60;37.20;;;;;;5017635;28;20461;-85
2022/10/03 12:51:52;;;;;;;12.93;2.07;;;20.30;39.50;;;;;;5018482;28;20462;-85
2022/10/03 12:54:35;;;;;;;9.90;2.53;;;19.90;41.70;;;;;;5018285;28;20536;-86
2022/10/03 12:57:29;;;;;;;6.80;1.50;;;19.40;43.80;;;;;;5018646;28;20459;-84
2022/10/03 13:00:04;;;;;;;6.30;1.53;;;19.10;43.60;;;;;;5016197;28;20449;-85
2022/10/03 13:02:37;;;;;;;10.00;1.80;;;19.40;43.80;;;;;;5015480;28;20476;-85
2022/10/03 13:05:32;;;;;;;9.30;1.90;;;20.30;41.40;;;;;;5015321;28;20456;-85
2022/10/03 13:08:02;;;;;;;6.60;1.70;;;20.10;43.60;;;;;;5015500;28;20551;-85
2022/10/03 13:10:40;;;;;;;7.40;1.43;;;19.70;44.10;;;;;;5015247;28;20945;-85
2022/10/03 13:13:22;;;;;;;4.70;1.80;;;19.40;44.90;;;;;;5016393;28;20474;-85
2022/10/03 13:16:11;;;;;;;10.20;1.80;;;19.70;48.50;;;;;;5017833;28;21037;-85
2022/10/03 13:18:59;;;;;;;7.83;1.83;;;19.80;44.20;;;;;;5017157;28;21009;-87
2022/10/03 13:21:44;;;;;;;9.87;2.10;;;20.10;41.00;;;;;;5020036;28;20460;-84
2022/10/03 13:24:21;;;;;;;10.37;1.70;;;20.10;44.30;;;;;;5019133;28;20921;-85
2022/10/03 13:26:54;;;;;;;7.03;1.70;;;19.60;42.80;;;;;;5021751;28;20451;-84
2022/10/03 13:29:28;;;;;;;7.10;1.73;;;19.50;44.50;;;;;;5022049;28;20979;-85
2022/10/03 13:32:18;;;;;;;6.77;1.43;;;19.30;46.70;;;;;;5020853;28;20820;-84
2022/10/03 13:35:57;;;;;;;13.40;2.97;;;19.00;48.70;;;;;;5018673;28;20949;-84
2022/10/03 13:38:15;;;;;;;7.70;1.87;;;18.80;52.10;;;;;;5020956;28;20516;-84
2022/10/03 13:40:46;;;;;;;10.00;1.90;;;18.60;50.10;;;;;;5011359;28;20463;-83
2022/10/03 13:43:18;;;;;;;15.90;1.90;;;18.90;48.20;;;;;;5022864;28;20486;-84
2022/10/03 13:45:48;;;;;;;11.33;1.70;;;18.90;47.60;;;;;;5019058;28;20485;-84
2022/10/03 13:48:19;;;;;;;9.03;1.53;;;18.70;48.70;;;;;;5023208;28;20531;-83
2022/10/03 13:50:57;;;;;;;9.03;1.80;;;18.60;50.30;;;;;;5024812;28;20522;-84
2022/10/03 13:53:45;;;;;;;10.03;1.47;;;18.80;51.90;;;;;;5024803;28;20482;-84
2022/10/03 13:56:20;;;;;;;5.73;1.50;;;18.80;52.10;;;;;;5025698;28;20475;-84
2022/10/03 13:58:57;;;;;;;6.40;1.60;;;18.80;49.50;;;;;;5022758;28;20455;-83
2022/10/03 14:01:34;;;;;;;5.37;1.30;;;18.80;48.20;;;;;;5024824;28;20466;-83
2022/10/03 14:04:41;;;;;;;7.30;1.50;;;18.60;45.50;;;;;;5024139;28;20493;-84
2022/10/03 14:07:17;;;;;;;12.53;3.03;;;18.70;45.20;;;;;;5022127;28;20458;-83
2022/10/03 14:10:04;;;;;;;5.97;1.23;;;19.00;43.40;;;;;;5025372;28;20451;-83
2022/10/03 14:12:43;;;;;;;6.20;1.23;;;19.50;42.50;;;;;;5023420;28;20471;-84
2022/10/03 14:15:22;;;;;;;6.00;1.47;;;19.80;34.00;;;;;;5023634;28;20483;-83
2022/10/03 14:17:57;;;;;;;5.00;1.00;;;20.60;35.50;;;;;;5022670;28;20464;-84
2022/10/03 14:20:29;;;;;;;11.13;1.63;;;21.30;31.40;;;;;;5022830;28;20725;-84
2022/10/03 14:23:06;;;;;;;8.40;1.40;;;21.60;33.90;;;;;;5022064;28;20480;-84
2022/10/03 14:25:40;;;;;;;10.87;2.00;;;21.00;29.60;;;;;;5019805;28;20483;-84
2022/10/03 14:28:16;;;;;;;5.17;1.00;;;20.90;32.80;;;;;;5022776;28;20911;-84
2022/10/03 14:30:53;;;;;;;5.77;1.40;;;20.60;30.60;;;;;;5023017;28;20484;-84
2022/10/03 14:33:27;;;;;;;16.37;1.83;;;20.30;35.60;;;;;;5022180;28;20479;-84